Time;durP1;ratioP1;P1;durP2;ratioP2;P2;SDS_P1;SDS_P2;PMS_P1;PMS_P2;Temp;Humidity;BMP_temperature;BMP_pressure;BME280_temperature;BME280_humidity;BME280_pressure;Samples;Min_cycle;Max_cycle;Signal;HPM_P1;HPM_P2
2022/02/20 00:01:45;;;;;;;0.90;0.00;;;5.60;99.90;;;;;;20479375;28;20043;-45
2022/02/20 00:11:46;;;;;;;0.55;0.10;;;5.50;99.90;;;;;;20484306;28;20062;-45
2022/02/20 00:21:47;;;;;;;0.10;0.00;;;5.50;99.90;;;;;;20478697;28;20043;-45
2022/02/20 00:31:48;;;;;;;1.00;0.10;;;5.40;99.90;;;;;;20497002;28;20405;-45
2022/02/20 00:41:49;;;;;;;1.25;0.10;;;5.40;99.90;;;;;;20494463;28;20040;-45
2022/02/20 00:51:50;;;;;;;2.30;1.15;;;5.30;99.90;;;;;;20508018;28;20547;-45
2022/02/20 01:01:51;;;;;;;2.55;0.50;;;5.40;99.90;;;;;;20492248;28;20807;-45
2022/02/20 01:11:53;;;;;;;2.25;0.35;;;5.40;99.90;;;;;;20495167;28;20047;-45
2022/02/20 01:21:54;;;;;;;0.20;0.03;;;5.50;99.90;;;;;;20495019;28;20443;-45
2022/02/20 01:31:56;;;;;;;0.45;0.10;;;5.50;99.90;;;;;;20504241;28;20050;-46
2022/02/20 01:41:57;;;;;;;0.30;0.10;;;5.60;99.90;;;;;;20483810;28;20046;-45
2022/02/20 01:51:58;;;;;;;0.30;0.00;;;5.50;99.90;;;;;;20491548;28;20043;-45
2022/02/20 02:01:59;;;;;;;2.78;0.10;;;5.50;99.90;;;;;;20484408;28;20046;-45
2022/02/20 02:12:00;;;;;;;0.25;0.00;;;5.50;99.90;;;;;;20495422;28;20055;-46
2022/02/20 02:22:02;;;;;;;3.30;1.08;;;5.50;99.90;;;;;;20483375;28;20217;-45
2022/02/20 02:32:03;;;;;;;0.47;0.20;;;5.40;99.90;;;;;;20484609;28;20047;-46
2022/02/20 02:42:06;;;;;;;0.10;0.00;;;5.40;99.90;;;;;;20485939;28;20051;-45
2022/02/20 02:52:07;;;;;;;0.30;0.10;;;5.40;99.90;;;;;;20475548;28;20050;-45
2022/02/20 03:02:09;;;;;;;1.17;0.20;;;5.20;99.90;;;;;;20489265;28;20041;-45
2022/02/20 03:12:10;;;;;;;4.95;0.50;;;5.10;99.90;;;;;;20491652;28;20085;-45
2022/02/20 03:22:11;;;;;;;6.18;0.32;;;5.10;99.90;;;;;;20484835;28;20914;-45
2022/02/20 03:32:14;;;;;;;7.15;0.25;;;5.20;99.90;;;;;;20937976;23;20923;-44
2022/02/20 03:42:15;;;;;;;0.40;0.20;;;5.20;99.90;;;;;;20638287;28;20034;-44
2022/02/20 03:52:16;;;;;;;2.05;0.20;;;5.30;99.90;;;;;;20672421;28;20513;-44
2022/02/20 04:02:17;;;;;;;1.83;0.45;;;5.30;99.90;;;;;;20659909;28;20053;-44
2022/02/20 04:12:18;;;;;;;0.55;0.30;;;5.20;99.90;;;;;;20658422;28;20049;-45
2022/02/20 04:22:20;;;;;;;0.75;0.40;;;5.20;99.90;;;;;;20659452;28;20034;-44
2022/02/20 04:32:22;;;;;;;5.72;1.10;;;5.20;99.90;;;;;;20655958;28;20411;-44
2022/02/20 04:42:23;;;;;;;2.35;0.88;;;5.10;99.90;;;;;;20660361;28;20297;-44
2022/02/20 04:52:24;;;;;;;4.72;1.50;;;4.90;99.90;;;;;;20660831;28;20046;-45
2022/02/20 05:02:25;;;;;;;4.63;1.77;;;4.80;99.90;;;;;;20663134;28;20035;-44
2022/02/20 05:12:26;;;;;;;6.03;1.60;;;4.70;99.90;;;;;;20655403;28;20038;-45
2022/02/20 05:22:27;;;;;;;4.47;1.50;;;4.60;99.90;;;;;;20673263;28;20049;-45
2022/02/20 05:32:32;;;;;;;4.03;1.83;;;4.60;99.90;;;;;;20676262;28;20433;-45
2022/02/20 05:42:33;;;;;;;7.88;2.40;;;4.70;99.90;;;;;;20670606;28;20629;-46
2022/02/20 05:52:35;;;;;;;5.53;1.75;;;4.80;99.90;;;;;;20665150;28;20038;-46
2022/02/20 06:02:36;;;;;;;6.90;2.55;;;4.80;99.90;;;;;;20659844;28;20073;-46
2022/02/20 06:12:38;;;;;;;9.13;2.10;;;5.10;99.90;;;;;;20656534;28;20519;-46
2022/02/20 06:22:39;;;;;;;4.68;2.28;;;5.20;99.90;;;;;;20658307;28;20046;-47
2022/02/20 06:32:40;;;;;;;5.88;2.65;;;5.40;99.90;;;;;;20652696;28;20065;-47
2022/02/20 06:42:43;;;;;;;8.70;1.83;;;5.70;99.90;;;;;;20656242;28;20529;-48
2022/02/20 06:52:44;;;;;;;8.13;1.80;;;5.80;99.90;;;;;;20654707;28;20469;-48
2022/02/20 07:02:45;;;;;;;10.65;1.80;;;6.10;99.90;;;;;;20609697;28;20551;-49
2022/02/20 07:12:47;;;;;;;8.55;2.22;;;6.80;99.90;;;;;;20653510;28;20287;-49
2022/02/20 07:22:49;;;;;;;3.17;1.20;;;7.20;99.90;;;;;;20644131;28;20037;-49
2022/02/20 07:32:50;;;;;;;3.88;1.08;;;7.60;99.90;;;;;;20652633;28;20046;-49
2022/02/20 07:42:51;;;;;;;4.70;1.33;;;8.00;99.90;;;;;;20653454;28;20113;-49
2022/02/20 07:52:52;;;;;;;17.00;1.20;;;8.30;99.90;;;;;;20650035;28;20046;-47
2022/02/20 08:02:54;;;;;;;9.02;0.85;;;8.70;99.90;;;;;;20645299;28;20397;-48
2022/02/20 08:12:56;;;;;;;7.13;1.67;;;8.80;99.90;;;;;;20642209;28;20506;-47
2022/02/20 08:22:57;;;;;;;6.43;3.13;;;9.10;99.90;;;;;;20648677;28;20441;-47
2022/02/20 08:32:58;;;;;;;18.33;2.80;;;9.30;99.90;;;;;;20645455;28;20050;-46
2022/02/20 08:42:59;;;;;;;15.50;1.73;;;9.50;99.90;;;;;;20635983;28;20066;-46
2022/02/20 08:53:00;;;;;;;6.20;1.95;;;9.60;99.90;;;;;;20658161;28;20061;-46
2022/02/20 09:03:03;;;;;;;28.45;1.95;;;9.80;99.90;;;;;;20657462;28;20049;-47
2022/02/20 09:13:04;;;;;;;19.95;2.58;;;9.80;99.90;;;;;;20662102;28;20658;-46
2022/02/20 09:23:05;;;;;;;12.98;2.95;;;10.00;99.90;;;;;;20633197;28;22093;-46
2022/02/20 09:33:06;;;;;;;10.35;2.70;;;10.00;99.90;;;;;;20649930;28;20367;-47
2022/02/20 09:43:11;;;;;;;21.42;2.25;;;10.20;99.90;;;;;;20662795;28;20075;-45
2022/02/20 09:53:13;;;;;;;16.67;2.03;;;10.30;99.90;;;;;;20619172;28;22322;-46
2022/02/20 10:03:31;;;;;;;13.50;2.00;;;10.50;99.90;;;;;;20645360;28;20043;-47
2022/02/20 10:13:32;;;;;;;;;;;10.40;99.90;;;;;;20648067;28;20050;-46
2022/02/20 10:23:40;;;;;;;13.48;2.10;;;10.30;99.90;;;;;;20650621;28;20392;-46
2022/02/20 10:33:41;;;;;;;20.90;3.15;;;10.20;99.90;;;;;;20647199;28;20049;-46
2022/02/20 10:43:42;;;;;;;13.80;2.28;;;10.00;99.90;;;;;;20611110;28;20043;-47
2022/02/20 10:53:49;;;;;;;19.50;2.55;;;9.80;99.90;;;;;;20641525;28;20050;-48
2022/02/20 11:03:51;;;;;;;15.67;2.00;;;9.70;99.90;;;;;;20630538;28;20042;-47
2022/02/20 11:13:54;;;;;;;9.32;2.40;;;9.70;99.90;;;;;;20605355;28;20054;-47
2022/02/20 11:23:58;;;;;;;22.77;2.45;;;9.70;99.90;;;;;;20635307;28;20811;-46
2022/02/20 11:34:03;;;;;;;23.25;2.65;;;9.60;99.90;;;;;;20641358;28;20508;-47
2022/02/20 11:44:43;;;;;;;16.58;3.90;;;9.70;99.90;;;;;;20633940;28;20048;-46
2022/02/20 11:54:44;;;;;;;12.25;2.08;;;9.80;99.90;;;;;;20637586;28;20054;-48
2022/02/20 12:04:51;;;;;;;27.70;3.47;;;9.80;99.90;;;;;;20631133;28;20046;-46
2022/02/20 12:15:24;;;;;;;22.90;2.75;;;9.80;99.90;;;;;;20645324;28;20052;-47
2022/02/20 12:25:38;;;;;;;18.85;1.83;;;9.80;99.90;;;;;;20603495;28;20325;-46
2022/02/20 12:35:50;;;;;;;17.52;2.38;;;9.80;99.90;;;;;;20665873;28;20045;-47
2022/02/20 12:45:51;;;;;;;7.25;1.95;;;9.80;99.90;;;;;;20650431;28;20042;-47
2022/02/20 12:55:55;;;;;;;13.05;1.90;;;9.80;99.90;;;;;;20652874;28;20061;-47
2022/02/20 13:05:57;;;;;;;9.85;1.48;;;9.80;99.90;;;;;;20631192;28;20041;-47
2022/02/20 13:16:04;;;;;;;9.30;3.13;;;9.80;99.90;;;;;;20631103;28;20047;-48
2022/02/20 13:26:15;;;;;;;20.90;4.65;;;9.80;99.90;;;;;;20631310;28;20604;-47
2022/02/20 13:36:21;;;;;;;17.92;2.25;;;9.80;99.90;;;;;;20637106;28;20360;-47
2022/02/20 13:46:48;;;;;;;19.75;2.28;;;9.90;99.90;;;;;;20625061;28;20033;-49
2022/02/20 13:56:55;;;;;;;8.00;1.37;;;9.90;99.90;;;;;;20656744;28;20052;-48
2022/02/20 14:07:00;;;;;;;14.80;3.15;;;9.90;99.90;;;;;;20652569;28;20031;-49
2022/02/20 14:17:03;;;;;;;16.13;2.30;;;9.90;99.90;;;;;;20641983;28;20050;-50
2022/02/20 14:27:06;;;;;;;13.88;2.88;;;9.90;99.90;;;;;;20659491;28;20238;-49
2022/02/20 14:37:09;;;;;;;26.00;3.88;;;9.90;99.90;;;;;;20689223;28;20062;-49
2022/02/20 14:47:10;;;;;;;14.38;2.30;;;10.00;99.90;;;;;;20689866;28;20588;-48
2022/02/20 14:57:12;;;;;;;15.20;2.75;;;10.00;99.90;;;;;;20689535;28;20043;-48
2022/02/20 15:07:14;;;;;;;8.25;2.17;;;10.00;99.90;;;;;;20702135;28;20045;-49
2022/02/20 15:17:20;;;;;;;10.82;2.22;;;10.00;99.90;;;;;;20706139;28;20064;-48
2022/02/20 15:27:21;;;;;;;12.05;2.22;;;10.00;99.90;;;;;;20704677;28;20321;-48
2022/02/20 15:37:22;;;;;;;6.50;1.85;;;10.00;99.90;;;;;;20722426;28;20406;-49
2022/02/20 15:47:23;;;;;;;7.63;1.88;;;10.10;99.90;;;;;;20708436;28;20034;-51
2022/02/20 15:57:27;;;;;;;7.47;2.28;;;10.10;99.90;;;;;;20685612;28;20052;-51
2022/02/20 16:07:29;;;;;;;8.57;1.02;;;10.10;99.90;;;;;;20689614;28;20270;-49
2022/02/20 16:17:34;;;;;;;5.25;1.13;;;10.10;99.90;;;;;;20698852;28;20049;-49
2022/02/20 16:27:35;;;;;;;5.65;1.33;;;10.10;99.90;;;;;;20698016;28;20398;-49
2022/02/20 16:37:36;;;;;;;17.80;3.60;;;10.10;99.90;;;;;;20693821;28;20684;-49
2022/02/20 16:47:37;;;;;;;9.27;0.98;;;10.10;99.90;;;;;;20681653;28;20039;-50
2022/02/20 16:57:39;;;;;;;3.90;1.63;;;10.10;99.90;;;;;;20697758;28;20060;-48
2022/02/20 17:07:40;;;;;;;9.02;1.40;;;10.20;99.90;;;;;;20707535;28;20061;-50
2022/02/20 17:17:42;;;;;;;5.43;1.55;;;10.20;99.90;;;;;;20705137;28;20528;-50
2022/02/20 17:27:44;;;;;;;3.83;0.80;;;10.10;99.90;;;;;;20701058;28;20064;-49
2022/02/20 17:37:47;;;;;;;5.88;1.25;;;10.20;99.90;;;;;;20706284;28;20402;-51
2022/02/20 17:47:49;;;;;;;4.05;1.38;;;10.20;99.90;;;;;;20709575;28;20096;-51
2022/02/20 17:57:50;;;;;;;7.10;2.08;;;10.20;99.90;;;;;;20708533;28;20046;-50
2022/02/20 18:07:51;;;;;;;6.25;1.20;;;10.30;99.90;;;;;;20688150;28;20049;-49
2022/02/20 18:17:54;;;;;;;10.00;1.23;;;10.20;99.90;;;;;;20700287;28;20042;-50
2022/02/20 18:27:56;;;;;;;9.15;1.45;;;10.20;99.90;;;;;;20697344;28;20057;-49
2022/02/20 18:37:57;;;;;;;9.18;1.35;;;10.20;99.90;;;;;;20717989;28;20444;-49
2022/02/20 18:47:58;;;;;;;3.58;0.73;;;10.10;99.90;;;;;;20705880;28;20045;-50
2022/02/20 18:57:59;;;;;;;3.47;0.80;;;10.20;99.90;;;;;;20690763;28;20408;-50
2022/02/20 19:08:00;;;;;;;5.43;1.25;;;10.20;99.90;;;;;;20685754;28;20049;-50
2022/02/20 19:18:03;;;;;;;7.68;1.20;;;10.20;99.90;;;;;;20676410;28;20418;-49
2022/02/20 19:28:08;;;;;;;6.15;1.10;;;10.20;99.90;;;;;;20681318;28;20390;-49
2022/02/20 19:38:11;;;;;;;12.18;2.92;;;10.20;99.90;;;;;;20688815;28;20034;-51
2022/02/20 19:48:14;;;;;;;6.60;2.83;;;10.20;99.90;;;;;;20696130;28;20050;-49
2022/02/20 19:58:15;;;;;;;5.47;1.38;;;10.20;99.90;;;;;;20689741;28;20049;-50
2022/02/20 20:08:17;;;;;;;6.13;1.73;;;10.20;99.90;;;;;;20662155;28;20039;-50
2022/02/20 20:18:18;;;;;;;4.57;1.15;;;10.20;99.90;;;;;;20686537;28;20045;-49
2022/02/20 20:28:19;;;;;;;5.30;1.40;;;10.20;99.90;;;;;;20664448;28;20034;-50
2022/02/20 20:38:21;;;;;;;6.32;1.25;;;10.30;99.90;;;;;;20673599;28;20046;-49
2022/02/20 20:48:22;;;;;;;5.50;1.23;;;10.40;99.90;;;;;;20681168;28;20218;-49
2022/02/20 20:58:24;;;;;;;5.60;0.73;;;10.50;99.90;;;;;;20689022;28;20052;-50
2022/02/20 21:08:25;;;;;;;6.65;0.63;;;10.00;99.90;;;;;;20684761;28;20447;-51
2022/02/20 21:18:26;;;;;;;1.77;0.50;;;8.40;99.90;;;;;;20664253;28;20065;-51
2022/02/20 21:28:27;;;;;;;15.85;0.98;;;7.60;99.90;;;;;;20661259;28;20124;-50
2022/02/20 21:38:28;;;;;;;3.67;1.00;;;7.20;99.90;;;;;;20658860;28;20046;-50
2022/02/20 21:48:30;;;;;;;1.10;0.20;;;7.10;99.90;;;;;;20668930;28;20039;-49
2022/02/20 21:58:31;;;;;;;2.35;0.38;;;6.90;99.90;;;;;;20669358;28;20225;-49
2022/02/20 22:08:32;;;;;;;1.15;0.28;;;6.90;99.90;;;;;;20671159;28;20041;-49
2022/02/20 22:18:34;;;;;;;0.60;0.20;;;6.80;99.90;;;;;;20657558;28;20676;-49
2022/02/20 22:28:36;;;;;;;1.67;0.40;;;6.80;99.90;;;;;;20663382;28;20034;-48
2022/02/20 22:38:37;;;;;;;3.03;1.10;;;6.80;99.90;;;;;;20664106;28;20041;-49
2022/02/20 22:48:38;;;;;;;2.38;0.50;;;6.90;99.90;;;;;;20659056;28;20042;-49
2022/02/20 22:58:42;;;;;;;1.77;0.20;;;7.10;99.90;;;;;;20659133;28;20038;-49
2022/02/20 23:08:43;;;;;;;2.33;0.15;;;7.00;99.90;;;;;;20654149;28;20049;-48
2022/02/20 23:18:44;;;;;;;1.38;0.30;;;6.90;99.90;;;;;;20651183;28;20038;-48
2022/02/20 23:28:47;;;;;;;3.58;0.63;;;6.80;99.90;;;;;;20655884;28;20111;-48
2022/02/20 23:38:48;;;;;;;3.20;0.47;;;6.90;99.90;;;;;;20643323;28;20047;-48
2022/02/20 23:48:50;;;;;;;1.73;0.43;;;7.00;99.90;;;;;;20643719;28;20038;-51
2022/02/20 23:58:51;;;;;;;1.13;0.40;;;7.00;99.90;;;;;;20644920;28;20057;-47
